KLVM

Mission Field Airport

Livingston, Montana, USA
METAR KLVM 271153Z AUTO 00000KT 10SM CLR 09/07 A3005 RMK AO2 SLP144 70008 T00890072 10144 20083 51029
Observed Flight Rules
May-27 @ 11:53 UTC (12 minutes ago) Visual Flight Rules
Visibility Clouds
10 miles
  • Clear skies
Temperatures Readings
Current 9°C / 48°F
Dewpoint 7°C / 45°F
Humidity 87%
Altimeter 30.05" Hg
Pressure 1014.4 hPa
Elevation 1418
METAR KLVM 271153Z AUTO 00000KT 10SM CLR 09/07 A3005 RMK AO2 SLP144 70008 T00890072 10144 20083 51029
Observed Flight Rules
May-27 @ 11:53 UTC
(12 minutes ago)
VFR
Clouds
  • Clear skies
Temperature Dewpoint
9°C / 48°F 7°C / 45°F
Humidity Altimeter Pressure
87% 30.05" Hg 1014.4 hPa